Time;durP1;ratioP1;P1;durP2;ratioP2;P2;SDS_P1;SDS_P2;PMS_P1;PMS_P2;Temp;Humidity;BMP_temperature;BMP_pressure;BME280_temperature;BME280_humidity;BME280_pressure;Samples;Min_cycle;Max_cycle;Signal;HPM_P1;HPM_P2
2022/03/25 00:01:40;;;;;;;;;;;;;;;;;;5036272;28;20327;-78
2022/03/25 00:04:05;;;;;;;;;;;;;;;;;;5036530;28;19918;-78
2022/03/25 00:06:30;;;;;;;;;;;;;;;;;;5018648;28;19909;-78
2022/03/25 00:08:55;;;;;;;;;;;;;;;;;;5017755;28;19909;-79
2022/03/25 00:11:20;;;;;;;;;;;;;;;;;;5039762;28;19916;-79
2022/03/25 00:13:46;;;;;;;;;;;;;;;;;;5022906;28;19924;-79
2022/03/25 00:16:12;;;;;;;;;;;;;;;;;;5021888;28;20262;-79
2022/03/25 00:18:39;;;;;;;;;;;;;;;;;;5021804;28;21575;-79
2022/03/25 00:21:05;;;;;;;;;;;;;;;;;;5021942;28;19910;-80
2022/03/25 00:23:30;;;;;;;;;;;;;;;;;;5021954;28;19915;-79
2022/03/25 00:25:55;;;;;;;;;;;;;;;;;;5039249;28;20389;-79
2022/03/25 00:28:20;;;;;;;;;;;;;;;;;;5039097;28;19905;-78
2022/03/25 00:30:46;;;;;;;;;;;;;;;;;;5021135;28;19909;-79
2022/03/25 00:33:11;;;;;;;;;;;;;;;;;;5021151;28;19955;-79
2022/03/25 00:35:36;;;;;;;;;;;;;;;;;;5038228;28;19932;-80
2022/03/25 00:38:02;;;;;;;;;;;;;;;;;;5020270;28;20274;-79
2022/03/25 00:40:27;;;;;;;;;;;;;;;;;;5019804;28;19909;-78
2022/03/25 00:42:52;;;;;;;;;;;;;;;;;;5020862;28;19909;-79
2022/03/25 00:45:17;;;;;;;;;;;;;;;;;;5038177;28;19910;-78
2022/03/25 00:47:42;;;;;;;;;;;;;;;;;;5020218;28;19918;-79
2022/03/25 00:50:07;;;;;;;;;;;;;;;;;;5020216;28;19995;-79
2022/03/25 00:52:33;;;;;;;;;;;;;;;;;;5016265;28;19929;-79
2022/03/25 00:54:58;;;;;;;;;;;;;;;;;;5018125;28;20394;-79
2022/03/25 00:57:23;;;;;;;;;;;;;;;;;;5016087;28;19979;-80
2022/03/25 00:59:48;;;;;;;;;;;;;;;;;;5014310;28;20017;-78
2022/03/25 01:02:13;;;;;;;;;;;;;;;;;;5000690;28;19910;-78
2022/03/25 01:04:39;;;;;;;;;;;;;;;;;;4999631;28;19918;-78
2022/03/25 01:07:04;;;;;;;;;;;;;;;;;;4999857;28;19934;-79
2022/03/25 01:09:29;;;;;;;;;;;;;;;;;;5015227;28;20037;-78
2022/03/25 01:11:54;;;;;;;;;;;;;;;;;;4999029;28;19917;-78
2022/03/25 01:14:19;;;;;;;;;;;;;;;;;;4999831;28;20280;-79
2022/03/25 01:16:44;;;;;;;;;;;;;;;;;;5000052;28;20021;-79
2022/03/25 01:19:10;;;;;;;;;;;;;;;;;;5013338;28;19910;-78
2022/03/25 01:21:35;;;;;;;;;;;;;;;;;;5011307;28;19910;-78
2022/03/25 01:24:01;;;;;;;;;;;;;;;;;;4996890;28;19917;-77
2022/03/25 01:26:26;;;;;;;;;;;;;;;;;;5011875;28;19916;-78
2022/03/25 01:28:52;;;;;;;;;;;;;;;;;;5011089;28;20283;-77
2022/03/25 01:31:18;;;;;;;;;;;;;;;;;;5011862;28;19917;-77
2022/03/25 01:33:43;;;;;;;;;;;;;;;;;;5000083;28;19921;-77
2022/03/25 01:36:09;;;;;;;;;;;;;;;;;;5000553;28;19932;-77
2022/03/25 01:38:34;;;;;;;;;;;;;;;;;;5000120;28;19945;-79
2022/03/25 01:40:59;;;;;;;;;;;;;;;;;;4999481;28;19910;-78
2022/03/25 01:43:24;;;;;;;;;;;;;;;;;;5014249;28;20013;-77
2022/03/25 01:45:49;;;;;;;;;;;;;;;;;;4999589;28;19999;-77
2022/03/25 01:48:14;;;;;;;;;;;;;;;;;;5015285;28;19933;-78
2022/03/25 01:50:39;;;;;;;;;;;;;;;;;;5014681;28;19909;-78
2022/03/25 01:53:05;;;;;;;;;;;;;;;;;;5014196;28;19922;-78
2022/03/25 01:55:30;;;;;;;;;;;;;;;;;;5015166;28;19914;-78
2022/03/25 01:57:55;;;;;;;;;;;;;;;;;;5014745;28;20004;-78
2022/03/25 02:00:20;;;;;;;;;;;;;;;;;;5013331;28;20407;-78
2022/03/25 02:02:46;;;;;;;;;;;;;;;;;;5014015;28;20013;-78
2022/03/25 02:05:11;;;;;;;;;;;;;;;;;;5014699;28;19914;-78
2022/03/25 02:07:36;;;;;;;;;;;;;;;;;;5015211;28;19921;-79
2022/03/25 02:10:01;;;;;;;;;;;;;;;;;;5014925;28;19909;-78
2022/03/25 02:12:26;;;;;;;;;;;;;;;;;;4999154;28;19933;-78
2022/03/25 02:14:51;;;;;;;;;;;;;;;;;;5014325;28;20363;-79
2022/03/25 02:17:16;;;;;;;;;;;;;;;;;;5014282;28;19910;-78
2022/03/25 02:19:41;;;;;;;;;;;;;;;;;;5014542;28;19910;-78
2022/03/25 02:22:08;;;;;;;;;;;;;;;;;;5014433;28;19914;-78
2022/03/25 02:24:33;;;;;;;;;;;;;;;;;;5014528;28;19910;-78
2022/03/25 02:26:59;;;;;;;;;;;;;;;;;;5014343;28;19960;-78
2022/03/25 02:29:24;;;;;;;;;;;;;;;;;;5014568;28;20381;-78
2022/03/25 02:31:49;;;;;;;;;;;;;;;;;;5013179;28;19910;-79
2022/03/25 02:34:14;;;;;;;;;;;;;;;;;;4999181;28;19968;-78
2022/03/25 02:36:41;;;;;;;;;;;;;;;;;;5013625;28;20422;-79
2022/03/25 02:39:06;;;;;;;;;;;;;;;;;;4999326;28;19933;-78
2022/03/25 02:41:31;;;;;;;;;;;;;;;;;;4998802;28;20476;-79
2022/03/25 02:43:57;;;;;;;;;;;;;;;;;;4998775;28;19964;-79
2022/03/25 02:46:22;;;;;;;;;;;;;;;;;;5014450;28;19914;-77
2022/03/25 02:48:47;;;;;;;;;;;;;;;;;;5013180;28;20291;-79
2022/03/25 02:51:12;;;;;;;;;;;;;;;;;;5014592;28;19910;-78
2022/03/25 02:53:37;;;;;;;;;;;;;;;;;;5013518;28;19922;-79
2022/03/25 02:56:02;;;;;;;;;;;;;;;;;;5013945;28;19909;-78
2022/03/25 02:58:27;;;;;;;;;;;;;;;;;;5013485;28;19910;-78
2022/03/25 03:00:52;;;;;;;;;;;;;;;;;;5013163;28;20473;-78
2022/03/25 03:03:18;;;;;;;;;;;;;;;;;;5012627;28;20004;-79
2022/03/25 03:05:44;;;;;;;;;;;;;;;;;;5013166;28;20000;-78
2022/03/25 03:08:09;;;;;;;;;;;;;;;;;;4998205;28;19941;-78
2022/03/25 03:10:34;;;;;;;;;;;;;;;;;;5012922;28;19925;-78
2022/03/25 03:12:59;;;;;;;;;;;;;;;;;;5012586;28;19980;-79
2022/03/25 03:15:24;;;;;;;;;;;;;;;;;;4997020;28;19925;-79
2022/03/25 03:17:50;;;;;;;;;;;;;;;;;;5012213;28;19957;-78
2022/03/25 03:20:15;;;;;;;;;;;;;;;;;;5012138;28;19925;-79
2022/03/25 03:22:41;;;;;;;;;;;;;;;;;;5012299;28;19917;-78
2022/03/25 03:25:06;;;;;;;;;;;;;;;;;;5012635;28;19917;-78
2022/03/25 03:27:31;;;;;;;;;;;;;;;;;;4997063;28;19917;-79
2022/03/25 03:29:56;;;;;;;;;;;;;;;;;;5012428;28;19898;-78
2022/03/25 03:32:22;;;;;;;;;;;;;;;;;;5012482;28;19952;-79
2022/03/25 03:34:47;;;;;;;;;;;;;;;;;;4996457;28;19928;-78
2022/03/25 03:37:12;;;;;;;;;;;;;;;;;;5012101;28;19952;-79
2022/03/25 03:39:37;;;;;;;;;;;;;;;;;;5012217;28;19973;-79
2022/03/25 03:42:03;;;;;;;;;;;;;;;;;;4996816;28;19952;-79
2022/03/25 03:44:28;;;;;;;;;;;;;;;;;;5012525;28;20004;-78
2022/03/25 03:46:53;;;;;;;;;;;;;;;;;;5016319;28;19910;-79
2022/03/25 03:49:18;;;;;;;;;;;;;;;;;;5016387;28;20287;-79
2022/03/25 03:51:43;;;;;;;;;;;;;;;;;;4999708;28;19914;-79
2022/03/25 03:54:08;;;;;;;;;;;;;;;;;;4953098;28;1820430;-78
2022/03/25 03:56:33;;;;;;;;;;;;;;;;;;5016935;28;19921;-78
2022/03/25 03:58:58;;;;;;;;;;;;;;;;;;5002020;28;19909;-79
2022/03/25 04:01:24;;;;;;;;;;;;;;;;;;5015717;28;19905;-78
2022/03/25 04:03:49;;;;;;;;;;;;;;;;;;5001516;28;19914;-79
2022/03/25 04:06:14;;;;;;;;;;;;;;;;;;5000145;28;19918;-79
2022/03/25 04:08:39;;;;;;;;;;;;;;;;;;5016062;28;19982;-79
2022/03/25 04:11:05;;;;;;;;;;;;;;;;;;5016023;28;19965;-78
2022/03/25 04:13:30;;;;;;;;;;;;;;;;;;5016230;28;19993;-78
2022/03/25 04:15:55;;;;;;;;;;;;;;;;;;5000980;28;19916;-78
2022/03/25 04:18:20;;;;;;;;;;;;;;;;;;5016069;28;19993;-79
2022/03/25 04:20:45;;;;;;;;;;;;;;;;;;5001103;28;19910;-79
2022/03/25 04:23:11;;;;;;;;;;;;;;;;;;5000684;28;19933;-80
2022/03/25 04:25:36;;;;;;;;;;;;;;;;;;5016172;28;20318;-79
2022/03/25 04:28:01;;;;;;;;;;;;;;;;;;5016718;28;19968;-79
2022/03/25 04:30:26;;;;;;;;;;;;;;;;;;5016285;28;19957;-79
2022/03/25 04:32:51;;;;;;;;;;;;;;;;;;5015355;28;19898;-78
2022/03/25 04:35:17;;;;;;;;;;;;;;;;;;5015193;28;19925;-78
2022/03/25 04:37:42;;;;;;;;;;;;;;;;;;4999935;28;19910;-79
2022/03/25 04:40:07;;;;;;;;;;;;;;;;;;4999971;28;19910;-78
2022/03/25 04:42:32;;;;;;;;;;;;;;;;;;5015905;28;20356;-79
2022/03/25 04:44:57;;;;;;;;;;;;;;;;;;5015548;28;19917;-79
2022/03/25 04:47:23;;;;;;;;;;;;;;;;;;5000837;28;19910;-79
2022/03/25 04:49:48;;;;;;;;;;;;;;;;;;5015694;28;19910;-79
2022/03/25 04:52:13;;;;;;;;;;;;;;;;;;5015684;28;19910;-78
2022/03/25 04:54:38;;;;;;;;;;;;;;;;;;5014518;28;20331;-79
2022/03/25 04:57:03;;;;;;;;;;;;;;;;;;4998733;28;20364;-79
2022/03/25 04:59:29;;;;;;;;;;;;;;;;;;5000252;28;19910;-79
2022/03/25 05:01:55;;;;;;;;;;;;;;;;;;5015748;28;19917;-78
2022/03/25 05:04:20;;;;;;;;;;;;;;;;;;5015192;28;20480;-78
2022/03/25 05:06:45;;;;;;;;;;;;;;;;;;4999792;28;19917;-79
2022/03/25 05:09:11;;;;;;;;;;;;;;;;;;4999249;28;19917;-79
2022/03/25 05:11:36;;;;;;;;;;;;;;;;;;4998710;28;19932;-78
2022/03/25 05:14:01;;;;;;;;;;;;;;;;;;5014557;28;20273;-79
2022/03/25 05:16:26;;;;;;;;;;;;;;;;;;5014299;28;19960;-79
2022/03/25 05:18:51;;;;;;;;;;;;;;;;;;5014499;28;19992;-79
2022/03/25 05:21:16;;;;;;;;;;;;;;;;;;5014506;28;19909;-79
2022/03/25 05:23:42;;;;;;;;;;;;;;;;;;5014106;28;19910;-78
2022/03/25 05:26:07;;;;;;;;;;;;;;;;;;4997825;28;19910;-79
2022/03/25 05:28:32;;;;;;;;;;;;;;;;;;5014467;28;19910;-78
2022/03/25 05:30:57;;;;;;;;;;;;;;;;;;5016654;28;19968;-78
2022/03/25 05:33:22;;;;;;;;;;;;;;;;;;4998695;28;19925;-78
2022/03/25 05:35:47;;;;;;;;;;;;;;;;;;5014346;28;19924;-79
2022/03/25 05:38:12;;;;;;;;;;;;;;;;;;4999685;28;20362;-78
2022/03/25 05:40:38;;;;;;;;;;;;;;;;;;4999460;28;19914;-77
2022/03/25 05:43:03;;;;;;;;;;;;;;;;;;5013459;28;20252;-77
2022/03/25 05:45:28;;;;;;;;;;;;;;;;;;5014675;28;19956;-78
2022/03/25 05:47:53;;;;;;;;;;;;;;;;;;4999741;28;20283;-78
2022/03/25 05:50:18;;;;;;;;;;;;;;;;;;5014656;28;19910;-78
2022/03/25 05:52:44;;;;;;;;;;;;;;;;;;5014452;28;19940;-79
2022/03/25 05:55:09;;;;;;;;;;;;;;;;;;5014571;28;20298;-79
2022/03/25 05:57:35;;;;;;;;;;;;;;;;;;5012598;28;20411;-79
2022/03/25 06:00:00;;;;;;;;;;;;;;;;;;5012656;28;19909;-79
2022/03/25 06:02:25;;;;;;;;;;;;;;;;;;5012117;28;19913;-79
2022/03/25 06:04:51;;;;;;;;;;;;;;;;;;5012467;28;19926;-80
2022/03/25 06:07:16;;;;;;;;;;;;;;;;;;4996721;28;20000;-79
2022/03/25 06:09:42;;;;;;;;;;;;;;;;;;5012043;28;19952;-79
2022/03/25 06:12:07;;;;;;;;;;;;;;;;;;4997549;28;19910;-79
2022/03/25 06:14:32;;;;;;;;;;;;;;;;;;4996119;28;19925;-80
2022/03/25 06:16:57;;;;;;;;;;;;;;;;;;4997054;28;19910;-79
2022/03/25 06:19:22;;;;;;;;;;;;;;;;;;4997180;28;19914;-80
2022/03/25 06:21:47;;;;;;;;;;;;;;;;;;5012140;28;20457;-79
2022/03/25 06:24:12;;;;;;;;;;;;;;;;;;4996083;28;19973;-79
2022/03/25 06:26:37;;;;;;;;;;;;;;;;;;4997275;28;19914;-79
2022/03/25 06:29:03;;;;;;;;;;;;;;;;;;5011632;28;19960;-78
2022/03/25 06:31:28;;;;;;;;;;;;;;;;;;5005265;28;19914;-80
2022/03/25 06:33:53;;;;;;;;;;;;;;;;;;5004270;28;19984;-83
2022/03/25 06:36:19;;;;;;;;;;;;;;;;;;5005798;28;20290;-79
2022/03/25 06:38:44;;;;;;;;;;;;;;;;;;5004301;28;19967;-79
2022/03/25 06:41:09;;;;;;;;;;;;;;;;;;5011559;28;19937;-79
2022/03/25 06:43:34;;;;;;;;;;;;;;;;;;4996973;28;19965;-80
2022/03/25 06:46:00;;;;;;;;;;;;;;;;;;4996361;28;19915;-79
2022/03/25 06:48:25;;;;;;;;;;;;;;;;;;5013685;28;20275;-79
2022/03/25 06:50:50;;;;;;;;;;;;;;;;;;5000555;28;20457;-79
2022/03/25 06:53:15;;;;;;;;;;;;;;;;;;5013529;28;19921;-78
2022/03/25 06:55:41;;;;;;;;;;;;;;;;;;5018946;28;19921;-79
2022/03/25 06:58:06;;;;;;;;;;;;;;;;;;5017949;28;19913;-79
2022/03/25 07:00:31;;;;;;;;;;;;;;;;;;5017963;28;19936;-83
2022/03/25 07:02:56;;;;;;;;;;;;;;;;;;5035642;28;19913;-84
2022/03/25 07:05:24;;;;;;;;;;;;;;;;;;5036862;28;19952;-81
2022/03/25 07:07:49;;;;;;;;;;;;;;;;;;5036523;28;20372;-81
2022/03/25 07:10:14;;;;;;;;;;;;;;;;;;5017702;28;20354;-80
2022/03/25 07:12:39;;;;;;;;;;;;;;;;;;5017083;28;19897;-79
2022/03/25 07:15:05;;;;;;;;;;;;;;;;;;5034333;28;20175;-79
2022/03/25 07:17:30;;;;;;;;;;;;;;;;;;5033473;28;19909;-79
2022/03/25 07:19:55;;;;;;;;;;;;;;;;;;5018671;28;19909;-79
2022/03/25 07:22:20;;;;;;;;;;;;;;;;;;5038478;28;19910;-79
2022/03/25 07:24:45;;;;;;;;;;;;;;;;;;5040106;28;19932;-79
2022/03/25 07:27:10;;;;;;;;;;;;;;;;;;5040457;28;20342;-79
2022/03/25 07:29:36;;;;;;;;;;;;;;;;;;5022734;28;19909;-80
2022/03/25 07:32:01;;;;;;;;;;;;;;;;;;5040285;28;19909;-79
2022/03/25 07:34:26;;;;;;;;;;;;;;;;;;5039321;28;19928;-79
2022/03/25 07:36:51;;;;;;;;;;;;;;;;;;5022130;28;19917;-79
2022/03/25 07:39:16;;;;;;;;;;;;;;;;;;5039279;28;20003;-79
2022/03/25 07:41:41;;;;;;;;;;;;;;;;;;5021937;28;19955;-79
2022/03/25 07:44:07;;;;;;;;;;;;;;;;;;5039877;28;19955;-79
2022/03/25 07:46:32;;;;;;;;;;;;;;;;;;5022578;28;20343;-79
2022/03/25 07:48:57;;;;;;;;;;;;;;;;;;5039025;28;19916;-79
2022/03/25 07:51:22;;;;;;;;;;;;;;;;;;5039415;28;19909;-79
2022/03/25 07:53:47;;;;;;;;;;;;;;;;;;5021584;28;19921;-80
2022/03/25 07:56:13;;;;;;;;;;;;;;;;;;5021339;28;19967;-79
2022/03/25 07:58:38;;;;;;;;;;;;;;;;;;5022148;28;19996;-78
2022/03/25 08:01:04;;;;;;;;;;;;;;;;;;5039473;28;19909;-80
2022/03/25 08:03:29;;;;;;;;;;;;;;;;;;5021833;28;20004;-79
2022/03/25 08:05:55;;;;;;;;;;;;;;;;;;5038435;28;19913;-80
2022/03/25 08:08:20;;;;;;;;;;;;;;;;;;5039766;28;19913;-79
2022/03/25 08:10:45;;;;;;;;;;;;;;;;;;5039491;28;19959;-78
2022/03/25 08:13:11;;;;;;;;;;;;;;;;;;5038940;28;20007;-79
2022/03/25 08:15:36;;;;;;;;;;;;;;;;;;5022121;28;19917;-80
2022/03/25 08:18:01;;;;;;;;;;;;;;;;;;5039740;28;19916;-81
2022/03/25 08:20:27;;;;;;;;;;;;;;;;;;5039115;28;19909;-81
2022/03/25 08:22:52;;;;;;;;;;;;;;;;;;5038985;28;19955;-81
2022/03/25 08:28:01;;;;;;;;;;;;;;;;;;5040071;28;19915;-80
2022/03/25 08:30:26;;;;;;;;;;;;;;;;;;5039550;28;20285;-80
2022/03/25 08:32:51;;;;;;;;;;;;;;;;;;5021950;28;20277;-80
2022/03/25 08:35:16;;;;;;;;;;;;;;;;;;5039325;28;19928;-81
2022/03/25 08:37:42;;;;;;;;;;;;;;;;;;5022507;28;19980;-80
2022/03/25 08:40:08;;;;;;;;;;;;;;;;;;5021826;28;19909;-82
2022/03/25 08:42:33;;;;;;;;;;;;;;;;;;5020821;28;19909;-80
2022/03/25 08:44:58;;;;;;;;;;;;;;;;;;5021508;28;19909;-81
2022/03/25 08:47:23;;;;;;;;;;;;;;;;;;5021995;28;19909;-80
2022/03/25 08:49:48;;;;;;;;;;;;;;;;;;5039244;28;19917;-81
2022/03/25 08:52:14;;;;;;;;;;;;;;;;;;5039079;28;19960;-81
2022/03/25 08:54:39;;;;;;;;;;;;;;;;;;5021988;28;19971;-80
2022/03/25 08:57:04;;;;;;;;;;;;;;;;;;5004382;28;19972;-79
2022/03/25 08:59:30;;;;;;;;;;;;;;;;;;4999384;28;19916;-81
2022/03/25 09:01:56;;;;;;;;;;;;;;;;;;4998250;28;19917;-80
2022/03/25 09:04:21;;;;;;;;;;;;;;;;;;4998573;28;19917;-81
2022/03/25 09:06:46;;;;;;;;;;;;;;;;;;4998525;28;19914;-84
2022/03/25 09:09:11;;;;;;;;;;;;;;;;;;4997835;28;19921;-80
2022/03/25 09:11:36;;;;;;;;;;;;;;;;;;4998211;28;19965;-80
2022/03/25 09:14:02;;;;;;;;;;;;;;;;;;4997537;28;20009;-80
2022/03/25 09:16:27;;;;;;;;;;;;;;;;;;4998061;28;19996;-80
2022/03/25 09:18:52;;;;;;;;;;;;;;;;;;4999097;28;20351;-80
2022/03/25 09:21:17;;;;;;;;;;;;;;;;;;4998648;28;19937;-80
2022/03/25 09:23:42;;;;;;;;;;;;;;;;;;4999068;28;19963;-79
2022/03/25 09:26:07;;;;;;;;;;;;;;;;;;4997546;28;20283;-79
2022/03/25 09:28:33;;;;;;;;;;;;;;;;;;5014428;28;20056;-80
2022/03/25 09:30:59;;;;;;;;;;;;;;;;;;5000652;28;20026;-81
2022/03/25 09:33:24;;;;;;;;;;;;;;;;;;5001879;28;20048;-82
2022/03/25 09:35:50;;;;;;;;;;;;;;;;;;5018812;28;19957;-81
2022/03/25 09:38:15;;;;;;;;;;;;;;;;;;5001469;28;19917;-80
2022/03/25 09:40:45;;;;;;;;;;;;;;;;;;5000329;28;19897;-79
2022/03/25 09:43:11;;;;;;;;;;;;;;;;;;4999450;28;20004;-81
2022/03/25 09:45:37;;;;;;;;;;;;;;;;;;5000685;28;20012;-80
2022/03/25 09:48:02;;;;;;;;;;;;;;;;;;4999697;28;19957;-80
2022/03/25 09:50:27;;;;;;;;;;;;;;;;;;5000724;28;19909;-81
2022/03/25 09:52:52;;;;;;;;;;;;;;;;;;4997017;28;19922;-80
2022/03/25 09:55:17;;;;;;;;;;;;;;;;;;4998630;28;19917;-81
2022/03/25 09:57:42;;;;;;;;;;;;;;;;;;4997792;28;19906;-80
2022/03/25 10:00:07;;;;;;;;;;;;;;;;;;4996558;28;19933;-80
2022/03/25 10:02:33;;;;;;;;;;;;;;;;;;4996033;28;19921;-81
2022/03/25 10:04:58;;;;;;;;;;;;;;;;;;4997253;28;19936;-81
2022/03/25 10:07:23;;;;;;;;;;;;;;;;;;4997384;28;20364;-80
2022/03/25 10:09:48;;;;;;;;;;;;;;;;;;4998482;28;19914;-81
2022/03/25 10:12:14;;;;;;;;;;;;;;;;;;4998419;28;19917;-81
2022/03/25 10:14:39;;;;;;;;;;;;;;;;;;4996761;28;19922;-80
2022/03/25 10:17:04;;;;;;;;;;;;;;;;;;4997649;28;19909;-80
2022/03/25 10:19:31;;;;;;;;;;;;;;;;;;4997122;28;19914;-82
2022/03/25 10:21:56;;;;;;;;;;;;;;;;;;4996655;28;19916;-81
2022/03/25 10:24:22;;;;;;;;;;;;;;;;;;4996686;28;19989;-81
2022/03/25 10:26:47;;;;;;;;;;;;;;;;;;4998354;28;19910;-81
2022/03/25 10:29:13;;;;;;;;;;;;;;;;;;4997855;28;19952;-82
2022/03/25 10:31:38;;;;;;;;;;;;;;;;;;4997298;28;19914;-81
2022/03/25 10:34:03;;;;;;;;;;;;;;;;;;4994969;28;19925;-81
2022/03/25 10:36:29;;;;;;;;;;;;;;;;;;4997188;28;19914;-80
2022/03/25 10:38:54;;;;;;;;;;;;;;;;;;4995715;28;20383;-80
2022/03/25 10:41:19;;;;;;;;;;;;;;;;;;4997357;28;19921;-80
2022/03/25 10:43:44;;;;;;;;;;;;;;;;;;4996891;28;19910;-80
2022/03/25 10:46:10;;;;;;;;;;;;;;;;;;4997227;28;19949;-80
2022/03/25 10:48:35;;;;;;;;;;;;;;;;;;4996087;28;20346;-79
2022/03/25 10:51:00;;;;;;;;;;;;;;;;;;4994922;28;19976;-81
2022/03/25 10:53:27;;;;;;;;;;;;;;;;;;4995529;28;19926;-81
2022/03/25 10:55:53;;;;;;;;;;;;;;;;;;4996416;28;19914;-81
2022/03/25 10:58:18;;;;;;;;;;;;;;;;;;4996421;28;19909;-79
2022/03/25 11:00:43;;;;;;;;;;;;;;;;;;4996521;28;19992;-81
2022/03/25 11:03:08;;;;;;;;;;;;;;;;;;4996455;28;19968;-81
2022/03/25 11:05:35;;;;;;;;;;;;;;;;;;4996339;28;19914;-80
2022/03/25 11:08:00;;;;;;;;;;;;;;;;;;4997395;28;19914;-79
2022/03/25 11:10:25;;;;;;;;;;;;;;;;;;4996810;28;20287;-80
2022/03/25 11:12:54;;;;;;;;;;;;;;;;;;4995946;28;19916;-80
2022/03/25 11:15:19;;;;;;;;;;;;;;;;;;4997591;28;19924;-80
2022/03/25 11:17:44;;;;;;;;;;;;;;;;;;4997423;28;19910;-80
2022/03/25 11:20:10;;;;;;;;;;;;;;;;;;4997677;28;19909;-81
2022/03/25 11:22:35;;;;;;;;;;;;;;;;;;4997591;28;19894;-79
2022/03/25 11:25:00;;;;;;;;;;;;;;;;;;4994898;28;19938;-80
2022/03/25 11:27:26;;;;;;;;;;;;;;;;;;4996475;28;20340;-80
2022/03/25 11:29:51;;;;;;;;;;;;;;;;;;4997310;28;19964;-80
2022/03/25 11:32:16;;;;;;;;;;;;;;;;;;5001781;28;19909;-81
2022/03/25 11:34:41;;;;;;;;;;;;;;;;;;4999874;28;19933;-81
2022/03/25 11:37:06;;;;;;;;;;;;;;;;;;4997612;28;19972;-80
2022/03/25 11:39:35;;;;;;;;;;;;;;;;;;4995247;28;19898;-81
2022/03/25 11:42:00;;;;;;;;;;;;;;;;;;4995157;28;19967;-80
2022/03/25 11:44:25;;;;;;;;;;;;;;;;;;4995501;28;20008;-79
2022/03/25 11:46:51;;;;;;;;;;;;;;;;;;4995336;28;19932;-80
2022/03/25 11:49:16;;;;;;;;;;;;;;;;;;4996008;28;19910;-80
2022/03/25 11:51:41;;;;;;;;;;;;;;;;;;4995900;28;19910;-80
2022/03/25 11:54:06;;;;;;;;;;;;;;;;;;4995603;28;19980;-81
2022/03/25 11:56:31;;;;;;;;;;;;;;;;;;4995358;28;19972;-81
2022/03/25 11:58:56;;;;;;;;;;;;;;;;;;4996691;28;19910;-81
2022/03/25 12:01:21;;;;;;;;;;;;;;;;;;4995477;28;19910;-82
2022/03/25 12:03:49;;;;;;;;;;;;;;;;;;4996412;28;19922;-81
2022/03/25 12:06:14;;;;;;;;;;;;;;;;;;4997201;28;19925;-80
2022/03/25 12:08:39;;;;;;;;;;;;;;;;;;4999286;28;19917;-80
2022/03/25 12:11:07;;;;;;;;;;;;;;;;;;4999725;28;20363;-82
2022/03/25 12:13:32;;;;;;;;;;;;;;;;;;4997876;28;19917;-81
2022/03/25 12:15:58;;;;;;;;;;;;;;;;;;4999282;28;19910;-85
2022/03/25 12:18:23;;;;;;;;;;;;;;;;;;5000332;28;19910;-81
2022/03/25 12:20:50;;;;;;;;;;;;;;;;;;4998095;28;20364;-82
2022/03/25 12:23:18;;;;;;;;;;;;;;;;;;4999051;28;19917;-83
2022/03/25 12:25:44;;;;;;;;;;;;;;;;;;4999099;28;19950;-82
2022/03/25 12:28:09;;;;;;;;;;;;;;;;;;4999283;28;19914;-82
2022/03/25 12:30:37;;;;;;;;;;;;;;;;;;4998135;28;19918;-82
2022/03/25 12:33:03;;;;;;;;;;;;;;;;;;4999887;28;20022;-81
2022/03/25 12:35:28;;;;;;;;;;;;;;;;;;5000341;28;20363;-80
2022/03/25 12:37:53;;;;;;;;;;;;;;;;;;4998400;28;19910;-80
2022/03/25 12:40:18;;;;;;;;;;;;;;;;;;4996404;28;19917;-81
2022/03/25 12:42:43;;;;;;;;;;;;;;;;;;4999146;28;20016;-81
2022/03/25 12:45:08;;;;;;;;;;;;;;;;;;4999441;28;19910;-81
2022/03/25 12:47:33;;;;;;;;;;;;;;;;;;4998169;28;19909;-81
2022/03/25 12:49:59;;;;;;;;;;;;;;;;;;4998524;28;19910;-81
2022/03/25 12:52:24;;;;;;;;;;;;;;;;;;4997999;28;19933;-81
2022/03/25 12:54:50;;;;;;;;;;;;;;;;;;4999366;28;20394;-82
2022/03/25 12:57:15;;;;;;;;;;;;;;;;;;4998933;28;19913;-82
2022/03/25 12:59:40;;;;;;;;;;;;;;;;;;5016402;28;19945;-80
2022/03/25 13:02:05;;;;;;;;;;;;;;;;;;4998842;28;20004;-80
2022/03/25 13:04:30;;;;;;;;;;;;;;;;;;5000399;28;19913;-81
2022/03/25 13:06:56;;;;;;;;;;;;;;;;;;5017999;28;20041;-80
2022/03/25 13:09:21;;;;;;;;;;;;;;;;;;5001425;28;19921;-80
2022/03/25 13:11:46;;;;;;;;;;;;;;;;;;5000828;28;19898;-80
2022/03/25 13:14:12;;;;;;;;;;;;;;;;;;5019014;28;19925;-80
2022/03/25 13:16:38;;;;;;;;;;;;;;;;;;5016341;28;20252;-80
2022/03/25 13:19:03;;;;;;;;;;;;;;;;;;5001404;28;20273;-80
2022/03/25 13:21:28;;;;;;;;;;;;;;;;;;5001163;28;19910;-80
2022/03/25 13:23:54;;;;;;;;;;;;;;;;;;5019596;28;19977;-80
2022/03/25 13:26:19;;;;;;;;;;;;;;;;;;5001446;28;20362;-80
2022/03/25 13:28:45;;;;;;;;;;;;;;;;;;5018820;28;19909;-80
2022/03/25 13:31:10;;;;;;;;;;;;;;;;;;5001350;28;19913;-80
2022/03/25 13:33:35;;;;;;;;;;;;;;;;;;4999850;28;20268;-80
2022/03/25 13:36:00;;;;;;;;;;;;;;;;;;5018643;28;19956;-81
2022/03/25 13:38:25;;;;;;;;;;;;;;;;;;5018215;28;19909;-80
2022/03/25 13:40:50;;;;;;;;;;;;;;;;;;5000014;28;19956;-80
2022/03/25 13:43:16;;;;;;;;;;;;;;;;;;5000140;28;19910;-80
2022/03/25 13:45:41;;;;;;;;;;;;;;;;;;5017888;28;19909;-80
2022/03/25 13:48:06;;;;;;;;;;;;;;;;;;5017530;28;20437;-80
2022/03/25 13:50:32;;;;;;;;;;;;;;;;;;5017862;28;19910;-80
2022/03/25 13:52:59;;;;;;;;;;;;;;;;;;5018087;28;20372;-80
2022/03/25 13:55:24;;;;;;;;;;;;;;;;;;5000595;28;19971;-80
2022/03/25 13:57:49;;;;;;;;;;;;;;;;;;5000562;28;19910;-80
2022/03/25 14:00:14;;;;;;;;;;;;;;;;;;5018147;28;19924;-80
2022/03/25 14:02:39;;;;;;;;;;;;;;;;;;5000452;28;20089;-80
2022/03/25 14:05:04;;;;;;;;;;;;;;;;;;5016532;28;19906;-80
2022/03/25 14:07:29;;;;;;;;;;;;;;;;;;5000116;28;19964;-80
2022/03/25 14:09:57;;;;;;;;;;;;;;;;;;5018012;28;19996;-80
2022/03/25 14:12:23;;;;;;;;;;;;;;;;;;5018100;28;20355;-80
2022/03/25 14:14:48;;;;;;;;;;;;;;;;;;4999883;28;19964;-80
2022/03/25 14:17:13;;;;;;;;;;;;;;;;;;5017234;28;19909;-80
2022/03/25 14:19:38;;;;;;;;;;;;;;;;;;4998701;28;20249;-80
2022/03/25 14:22:03;;;;;;;;;;;;;;;;;;4997973;28;19914;-81
2022/03/25 14:24:37;;;;;;;;;;;;;;;;;;5017462;28;19913;-81
2022/03/25 14:27:02;;;;;;;;;;;;;;;;;;5017039;28;20385;-81
2022/03/25 14:29:27;;;;;;;;;;;;;;;;;;5016942;28;20375;-81
2022/03/25 14:31:53;;;;;;;;;;;;;;;;;;4999937;28;20271;-81
2022/03/25 14:34:18;;;;;;;;;;;;;;;;;;4999862;28;19925;-81
2022/03/25 14:36:43;;;;;;;;;;;;;;;;;;5017571;28;19963;-80
2022/03/25 14:39:09;;;;;;;;;;;;;;;;;;5016308;28;19909;-80
2022/03/25 14:41:34;;;;;;;;;;;;;;;;;;4999430;28;19909;-81
2022/03/25 14:43:59;;;;;;;;;;;;;;;;;;4999962;28;19909;-81
2022/03/25 14:46:24;;;;;;;;;;;;;;;;;;4999789;28;19971;-81
2022/03/25 14:48:49;;;;;;;;;;;;;;;;;;5000038;28;19960;-82
2022/03/25 14:51:14;;;;;;;;;;;;;;;;;;5000137;28;19909;-82
2022/03/25 14:53:40;;;;;;;;;;;;;;;;;;4995852;28;19925;-83
2022/03/25 14:56:05;;;;;;;;;;;;;;;;;;5002352;28;19972;-83
2022/03/25 14:58:30;;;;;;;;;;;;;;;;;;5012734;28;19983;-81
2022/03/25 15:00:55;;;;;;;;;;;;;;;;;;5005092;28;19913;-80
2022/03/25 15:03:20;;;;;;;;;;;;;;;;;;5012976;28;19976;-79
2022/03/25 15:05:47;;;;;;;;;;;;;;;;;;4997148;28;19910;-79
2022/03/25 15:08:13;;;;;;;;;;;;;;;;;;5012141;28;20360;-82
2022/03/25 15:10:40;;;;;;;;;;;;;;;;;;5011008;28;19970;-80
2022/03/25 15:13:06;;;;;;;;;;;;;;;;;;5010768;28;19979;-80
2022/03/25 15:15:31;;;;;;;;;;;;;;;;;;5010641;28;20228;-80
2022/03/25 15:17:56;;;;;;;;;;;;;;;;;;5012073;28;19913;-81
2022/03/25 15:20:21;;;;;;;;;;;;;;;;;;4991413;28;19922;-80
2022/03/25 15:22:47;;;;;;;;;;;;;;;;;;5000769;28;19910;-81
2022/03/25 15:25:12;;;;;;;;;;;;;;;;;;4994913;28;19910;-80
2022/03/25 15:27:38;;;;;;;;;;;;;;;;;;5009336;28;19910;-79
2022/03/25 15:35:30;;;;;;;;;;;;;;;;;;4995358;28;19953;-80
2022/03/25 15:37:56;;;;;;;;;;;;;;;;;;5012356;28;20323;-80
2022/03/25 15:40:21;;;;;;;;;;;;;;;;;;5011694;28;20372;-80
2022/03/25 15:42:46;;;;;;;;;;;;;;;;;;5000528;28;19910;-81
2022/03/25 15:45:11;;;;;;;;;;;;;;;;;;5000293;28;19917;-82
2022/03/25 15:47:36;;;;;;;;;;;;;;;;;;5016150;28;20355;-82
2022/03/25 15:50:01;;;;;;;;;;;;;;;;;;5000343;28;19910;-80
2022/03/25 15:52:27;;;;;;;;;;;;;;;;;;5016322;28;19914;-82
2022/03/25 15:54:52;;;;;;;;;;;;;;;;;;5020063;28;19921;-82
2022/03/25 15:57:19;;;;;;;;;;;;;;;;;;5019016;28;19910;-81
2022/03/25 15:59:44;;;;;;;;;;;;;;;;;;5020615;28;20351;-81
2022/03/25 16:02:10;;;;;;;;;;;;;;;;;;5017725;28;20374;-81
2022/03/25 16:04:35;;;;;;;;;;;;;;;;;;5019740;28;19960;-80
2022/03/25 16:07:00;;;;;;;;;;;;;;;;;;5017506;28;19913;-84
2022/03/25 16:09:27;;;;;;;;;;;;;;;;;;5019414;28;20023;-84
2022/03/25 16:11:52;;;;;;;;;;;;;;;;;;5017786;28;19941;-84
2022/03/25 16:14:17;;;;;;;;;;;;;;;;;;5018954;28;19987;-81
2022/03/25 16:16:42;;;;;;;;;;;;;;;;;;5018346;28;19913;-81
2022/03/25 16:19:08;;;;;;;;;;;;;;;;;;5018886;28;19971;-85
2022/03/25 16:21:33;;;;;;;;;;;;;;;;;;5020015;28;19909;-80
2022/03/25 16:23:59;;;;;;;;;;;;;;;;;;5018378;28;19910;-81
2022/03/25 16:26:24;;;;;;;;;;;;;;;;;;5019317;28;19909;-79
2022/03/25 16:28:49;;;;;;;;;;;;;;;;;;5019166;28;19953;-79
2022/03/25 16:31:14;;;;;;;;;;;;;;;;;;5021616;28;20322;-80
2022/03/25 16:33:42;;;;;;;;;;;;;;;;;;5029519;28;20000;-80
2022/03/25 16:36:08;;;;;;;;;;;;;;;;;;5038640;28;19909;-79
2022/03/25 16:38:33;;;;;;;;;;;;;;;;;;5019567;28;19910;-79
2022/03/25 16:40:59;;;;;;;;;;;;;;;;;;5018192;28;20008;-78